sensor_id;sensor_type;location;lat;lon;timestamp;P1;durP1;ratioP1;P2;durP2;ratioP2
47866;SDS011;33628;50.806;11.586;2023-04-03T00:01:35;6.13;;;1.75;;
47866;SDS011;33628;50.806;11.586;2023-04-03T00:04:04;6.20;;;1.75;;
47866;SDS011;33628;50.806;11.586;2023-04-03T00:06:31;8.52;;;1.88;;
47866;SDS011;33628;50.806;11.586;2023-04-03T00:08:58;5.10;;;1.70;;
47866;SDS011;33628;50.806;11.586;2023-04-03T00:11:25;3.40;;;1.58;;
47866;SDS011;33628;50.806;11.586;2023-04-03T00:13:52;5.97;;;1.90;;
47866;SDS011;33628;50.806;11.586;2023-04-03T00:16:19;7.78;;;1.92;;
47866;SDS011;33628;50.806;11.586;2023-04-03T00:18:45;8.27;;;2.63;;
47866;SDS011;33628;50.806;11.586;2023-04-03T00:21:12;7.32;;;1.85;;
47866;SDS011;33628;50.806;11.586;2023-04-03T00:23:40;6.65;;;2.78;;
47866;SDS011;33628;50.806;11.586;2023-04-03T00:26:06;8.13;;;1.67;;
47866;SDS011;33628;50.806;11.586;2023-04-03T00:28:34;9.20;;;2.10;;
47866;SDS011;33628;50.806;11.586;2023-04-03T00:31:01;7.38;;;1.80;;
47866;SDS011;33628;50.806;11.586;2023-04-03T00:33:28;7.88;;;2.10;;
47866;SDS011;33628;50.806;11.586;2023-04-03T00:35:54;7.05;;;1.73;;
47866;SDS011;33628;50.806;11.586;2023-04-03T00:38:21;7.95;;;1.77;;
47866;SDS011;33628;50.806;11.586;2023-04-03T00:40:48;3.83;;;1.80;;
47866;SDS011;33628;50.806;11.586;2023-04-03T00:43:16;5.45;;;1.80;;
47866;SDS011;33628;50.806;11.586;2023-04-03T00:45:46;7.03;;;1.88;;
47866;SDS011;33628;50.806;11.586;2023-04-03T00:48:15;7.22;;;2.00;;
47866;SDS011;33628;50.806;11.586;2023-04-03T00:50:45;3.78;;;1.80;;
47866;SDS011;33628;50.806;11.586;2023-04-03T00:53:14;4.25;;;1.70;;
47866;SDS011;33628;50.806;11.586;2023-04-03T00:55:43;5.22;;;1.63;;
47866;SDS011;33628;50.806;11.586;2023-04-03T00:58:10;4.57;;;1.92;;
47866;SDS011;33628;50.806;11.586;2023-04-03T01:00:39;8.75;;;2.40;;
47866;SDS011;33628;50.806;11.586;2023-04-03T01:03:08;8.73;;;2.00;;
47866;SDS011;33628;50.806;11.586;2023-04-03T01:05:39;4.22;;;1.63;;
47866;SDS011;33628;50.806;11.586;2023-04-03T01:08:06;7.53;;;1.90;;
47866;SDS011;33628;50.806;11.586;2023-04-03T01:10:33;5.45;;;1.77;;
47866;SDS011;33628;50.806;11.586;2023-04-03T01:13:00;4.18;;;1.63;;
47866;SDS011;33628;50.806;11.586;2023-04-03T01:15:27;5.95;;;1.95;;
47866;SDS011;33628;50.806;11.586;2023-04-03T01:18:00;9.15;;;2.30;;
47866;SDS011;33628;50.806;11.586;2023-04-03T01:23:18;10.93;;;2.10;;
47866;SDS011;33628;50.806;11.586;2023-04-03T01:25:49;11.10;;;1.70;;
47866;SDS011;33628;50.806;11.586;2023-04-03T01:28:18;14.73;;;4.40;;
47866;SDS011;33628;50.806;11.586;2023-04-03T01:30:47;6.97;;;1.85;;
47866;SDS011;33628;50.806;11.586;2023-04-03T01:33:16;4.38;;;1.70;;
47866;SDS011;33628;50.806;11.586;2023-04-03T01:35:45;5.35;;;2.05;;
47866;SDS011;33628;50.806;11.586;2023-04-03T01:38:12;8.77;;;1.63;;
47866;SDS011;33628;50.806;11.586;2023-04-03T01:40:39;9.05;;;2.00;;
47866;SDS011;33628;50.806;11.586;2023-04-03T01:43:06;3.90;;;1.60;;
47866;SDS011;33628;50.806;11.586;2023-04-03T01:45:32;5.78;;;1.85;;
47866;SDS011;33628;50.806;11.586;2023-04-03T01:47:59;10.20;;;2.00;;
47866;SDS011;33628;50.806;11.586;2023-04-03T01:50:28;8.60;;;2.00;;
47866;SDS011;33628;50.806;11.586;2023-04-03T01:52:54;10.52;;;1.98;;
47866;SDS011;33628;50.806;11.586;2023-04-03T01:55:21;12.80;;;2.80;;
47866;SDS011;33628;50.806;11.586;2023-04-03T01:57:48;9.90;;;2.33;;
47866;SDS011;33628;50.806;11.586;2023-04-03T02:00:15;10.05;;;2.22;;
47866;SDS011;33628;50.806;11.586;2023-04-03T02:02:42;5.40;;;2.30;;
47866;SDS011;33628;50.806;11.586;2023-04-03T02:05:09;5.95;;;1.90;;
47866;SDS011;33628;50.806;11.586;2023-04-03T02:07:37;8.60;;;2.85;;
47866;SDS011;33628;50.806;11.586;2023-04-03T02:10:04;9.80;;;2.80;;
47866;SDS011;33628;50.806;11.586;2023-04-03T02:12:32;5.32;;;2.03;;
47866;SDS011;33628;50.806;11.586;2023-04-03T02:14:59;4.85;;;1.98;;
47866;SDS011;33628;50.806;11.586;2023-04-03T02:17:26;9.07;;;2.72;;
47866;SDS011;33628;50.806;11.586;2023-04-03T02:19:54;10.80;;;1.98;;
47866;SDS011;33628;50.806;11.586;2023-04-03T02:22:21;7.57;;;2.13;;
47866;SDS011;33628;50.806;11.586;2023-04-03T02:24:49;9.02;;;2.45;;
47866;SDS011;33628;50.806;11.586;2023-04-03T02:27:17;7.82;;;2.17;;
47866;SDS011;33628;50.806;11.586;2023-04-03T02:29:44;7.18;;;2.17;;
47866;SDS011;33628;50.806;11.586;2023-04-03T02:32:11;13.57;;;3.90;;
47866;SDS011;33628;50.806;11.586;2023-04-03T02:34:38;8.02;;;1.98;;
47866;SDS011;33628;50.806;11.586;2023-04-03T02:37:06;7.63;;;2.70;;
47866;SDS011;33628;50.806;11.586;2023-04-03T02:39:34;7.40;;;2.47;;
47866;SDS011;33628;50.806;11.586;2023-04-03T02:42:02;10.35;;;2.45;;
47866;SDS011;33628;50.806;11.586;2023-04-03T02:44:29;4.28;;;2.90;;
47866;SDS011;33628;50.806;11.586;2023-04-03T02:46:55;11.70;;;2.97;;
47866;SDS011;33628;50.806;11.586;2023-04-03T02:49:23;10.48;;;2.30;;
47866;SDS011;33628;50.806;11.586;2023-04-03T02:51:50;6.95;;;2.35;;
47866;SDS011;33628;50.806;11.586;2023-04-03T02:54:17;5.88;;;2.10;;
47866;SDS011;33628;50.806;11.586;2023-04-03T02:56:48;7.55;;;2.28;;
47866;SDS011;33628;50.806;11.586;2023-04-03T02:59:17;13.32;;;2.55;;
47866;SDS011;33628;50.806;11.586;2023-04-03T03:01:44;6.18;;;2.28;;
47866;SDS011;33628;50.806;11.586;2023-04-03T03:04:10;8.40;;;2.17;;
47866;SDS011;33628;50.806;11.586;2023-04-03T03:06:37;8.57;;;2.67;;
47866;SDS011;33628;50.806;11.586;2023-04-03T03:09:04;8.38;;;1.90;;
47866;SDS011;33628;50.806;11.586;2023-04-03T03:11:31;9.32;;;2.10;;
47866;SDS011;33628;50.806;11.586;2023-04-03T03:13:58;7.78;;;2.72;;
47866;SDS011;33628;50.806;11.586;2023-04-03T03:16:26;7.95;;;2.13;;
47866;SDS011;33628;50.806;11.586;2023-04-03T03:18:53;5.72;;;2.88;;
47866;SDS011;33628;50.806;11.586;2023-04-03T03:21:20;7.82;;;2.80;;
47866;SDS011;33628;50.806;11.586;2023-04-03T03:23:47;9.13;;;2.00;;
47866;SDS011;33628;50.806;11.586;2023-04-03T03:26:13;7.55;;;2.38;;
47866;SDS011;33628;50.806;11.586;2023-04-03T03:28:40;5.53;;;2.08;;
47866;SDS011;33628;50.806;11.586;2023-04-03T03:31:07;6.85;;;2.15;;
47866;SDS011;33628;50.806;11.586;2023-04-03T03:33:37;10.35;;;2.30;;
47866;SDS011;33628;50.806;11.586;2023-04-03T03:36:04;8.68;;;2.70;;
47866;SDS011;33628;50.806;11.586;2023-04-03T03:38:31;8.52;;;2.45;;
47866;SDS011;33628;50.806;11.586;2023-04-03T03:40:59;10.68;;;2.40;;
47866;SDS011;33628;50.806;11.586;2023-04-03T03:43:27;10.32;;;2.53;;
47866;SDS011;33628;50.806;11.586;2023-04-03T03:45:54;5.90;;;2.17;;
47866;SDS011;33628;50.806;11.586;2023-04-03T03:48:22;9.93;;;2.63;;
47866;SDS011;33628;50.806;11.586;2023-04-03T03:50:51;10.70;;;2.90;;
47866;SDS011;33628;50.806;11.586;2023-04-03T03:53:21;7.68;;;3.30;;
47866;SDS011;33628;50.806;11.586;2023-04-03T03:55:50;10.00;;;2.60;;
47866;SDS011;33628;50.806;11.586;2023-04-03T03:58:19;6.40;;;2.47;;
47866;SDS011;33628;50.806;11.586;2023-04-03T04:00:46;6.50;;;2.10;;
47866;SDS011;33628;50.806;11.586;2023-04-03T04:03:13;6.50;;;2.33;;
47866;SDS011;33628;50.806;11.586;2023-04-03T04:05:40;8.73;;;2.17;;
47866;SDS011;33628;50.806;11.586;2023-04-03T04:08:09;5.93;;;2.30;;
47866;SDS011;33628;50.806;11.586;2023-04-03T04:10:36;7.97;;;2.45;;
47866;SDS011;33628;50.806;11.586;2023-04-03T04:13:04;13.65;;;3.22;;
47866;SDS011;33628;50.806;11.586;2023-04-03T04:15:31;9.20;;;2.88;;
47866;SDS011;33628;50.806;11.586;2023-04-03T04:17:58;8.90;;;2.80;;
47866;SDS011;33628;50.806;11.586;2023-04-03T04:20:25;5.35;;;2.47;;
47866;SDS011;33628;50.806;11.586;2023-04-03T04:22:53;9.45;;;2.72;;
47866;SDS011;33628;50.806;11.586;2023-04-03T04:25:23;3.92;;;2.20;;
47866;SDS011;33628;50.806;11.586;2023-04-03T04:27:49;10.18;;;2.17;;
47866;SDS011;33628;50.806;11.586;2023-04-03T04:30:17;8.32;;;2.13;;
47866;SDS011;33628;50.806;11.586;2023-04-03T04:32:46;4.35;;;2.10;;
47866;SDS011;33628;50.806;11.586;2023-04-03T04:35:13;10.52;;;2.63;;
47866;SDS011;33628;50.806;11.586;2023-04-03T04:37:42;7.60;;;2.70;;
47866;SDS011;33628;50.806;11.586;2023-04-03T04:40:10;5.38;;;2.40;;
47866;SDS011;33628;50.806;11.586;2023-04-03T04:42:39;6.47;;;2.33;;
47866;SDS011;33628;50.806;11.586;2023-04-03T04:45:06;10.07;;;2.60;;
47866;SDS011;33628;50.806;11.586;2023-04-03T04:47:34;6.70;;;2.10;;
47866;SDS011;33628;50.806;11.586;2023-04-03T04:50:00;10.32;;;2.30;;
47866;SDS011;33628;50.806;11.586;2023-04-03T04:52:28;9.65;;;2.63;;
47866;SDS011;33628;50.806;11.586;2023-04-03T04:54:54;4.60;;;2.22;;
47866;SDS011;33628;50.806;11.586;2023-04-03T04:57:21;9.05;;;2.50;;
47866;SDS011;33628;50.806;11.586;2023-04-03T04:59:50;6.35;;;2.45;;
47866;SDS011;33628;50.806;11.586;2023-04-03T05:02:17;8.43;;;2.65;;
47866;SDS011;33628;50.806;11.586;2023-04-03T05:04:44;4.78;;;2.63;;
47866;SDS011;33628;50.806;11.586;2023-04-03T05:07:17;8.60;;;2.78;;
47866;SDS011;33628;50.806;11.586;2023-04-03T05:09:44;8.15;;;2.97;;
47866;SDS011;33628;50.806;11.586;2023-04-03T05:12:12;8.32;;;2.95;;
47866;SDS011;33628;50.806;11.586;2023-04-03T05:14:45;10.15;;;2.97;;
47866;SDS011;33628;50.806;11.586;2023-04-03T05:17:13;6.05;;;2.80;;
47866;SDS011;33628;50.806;11.586;2023-04-03T05:19:44;9.70;;;3.10;;
47866;SDS011;33628;50.806;11.586;2023-04-03T05:22:12;10.68;;;2.60;;
47866;SDS011;33628;50.806;11.586;2023-04-03T05:24:39;7.07;;;3.28;;
47866;SDS011;33628;50.806;11.586;2023-04-03T05:27:06;4.82;;;2.20;;
47866;SDS011;33628;50.806;11.586;2023-04-03T05:29:37;7.15;;;3.00;;
47866;SDS011;33628;50.806;11.586;2023-04-03T05:32:04;7.38;;;2.97;;
47866;SDS011;33628;50.806;11.586;2023-04-03T05:34:33;8.35;;;2.97;;
47866;SDS011;33628;50.806;11.586;2023-04-03T05:37:01;10.63;;;3.17;;
47866;SDS011;33628;50.806;11.586;2023-04-03T05:39:28;9.90;;;3.15;;
47866;SDS011;33628;50.806;11.586;2023-04-03T05:41:57;7.20;;;2.80;;
47866;SDS011;33628;50.806;11.586;2023-04-03T05:44:23;8.38;;;2.92;;
47866;SDS011;33628;50.806;11.586;2023-04-03T05:46:51;12.93;;;2.88;;
47866;SDS011;33628;50.806;11.586;2023-04-03T05:49:19;7.75;;;2.92;;
47866;SDS011;33628;50.806;11.586;2023-04-03T05:51:47;11.40;;;2.85;;
47866;SDS011;33628;50.806;11.586;2023-04-03T05:54:23;10.48;;;3.20;;
47866;SDS011;33628;50.806;11.586;2023-04-03T05:56:55;5.60;;;3.10;;
47866;SDS011;33628;50.806;11.586;2023-04-03T05:59:22;11.90;;;2.83;;
47866;SDS011;33628;50.806;11.586;2023-04-03T06:01:51;7.13;;;2.78;;
47866;SDS011;33628;50.806;11.586;2023-04-03T06:04:18;7.88;;;2.83;;
47866;SDS011;33628;50.806;11.586;2023-04-03T06:06:49;6.32;;;2.70;;
47866;SDS011;33628;50.806;11.586;2023-04-03T06:09:20;8.45;;;2.72;;
47866;SDS011;33628;50.806;11.586;2023-04-03T06:11:48;9.50;;;2.75;;
47866;SDS011;33628;50.806;11.586;2023-04-03T06:14:16;10.80;;;3.10;;
47866;SDS011;33628;50.806;11.586;2023-04-03T06:16:43;9.70;;;2.65;;
47866;SDS011;33628;50.806;11.586;2023-04-03T06:19:10;7.75;;;3.08;;
47866;SDS011;33628;50.806;11.586;2023-04-03T06:21:41;5.47;;;2.97;;
47866;SDS011;33628;50.806;11.586;2023-04-03T06:24:10;6.35;;;3.05;;
47866;SDS011;33628;50.806;11.586;2023-04-03T06:26:39;8.90;;;3.78;;
47866;SDS011;33628;50.806;11.586;2023-04-03T06:29:08;8.40;;;3.42;;
47866;SDS011;33628;50.806;11.586;2023-04-03T06:31:35;7.13;;;3.13;;
47866;SDS011;33628;50.806;11.586;2023-04-03T06:34:02;9.18;;;3.85;;
47866;SDS011;33628;50.806;11.586;2023-04-03T06:36:29;10.98;;;3.85;;
47866;SDS011;33628;50.806;11.586;2023-04-03T06:38:56;6.57;;;3.63;;
47866;SDS011;33628;50.806;11.586;2023-04-03T06:41:24;7.93;;;3.72;;
47866;SDS011;33628;50.806;11.586;2023-04-03T06:43:52;10.68;;;4.22;;
47866;SDS011;33628;50.806;11.586;2023-04-03T06:46:19;10.85;;;3.22;;
47866;SDS011;33628;50.806;11.586;2023-04-03T06:48:47;5.80;;;3.13;;
47866;SDS011;33628;50.806;11.586;2023-04-03T06:51:18;6.65;;;3.53;;
47866;SDS011;33628;50.806;11.586;2023-04-03T06:53:46;8.10;;;2.63;;
47866;SDS011;33628;50.806;11.586;2023-04-03T06:56:13;9.38;;;3.40;;
47866;SDS011;33628;50.806;11.586;2023-04-03T06:58:42;13.10;;;3.42;;
47866;SDS011;33628;50.806;11.586;2023-04-03T07:01:09;9.10;;;3.33;;
47866;SDS011;33628;50.806;11.586;2023-04-03T07:03:37;7.28;;;3.17;;
47866;SDS011;33628;50.806;11.586;2023-04-03T07:06:04;7.30;;;2.92;;
47866;SDS011;33628;50.806;11.586;2023-04-03T07:08:33;10.15;;;3.28;;
47866;SDS011;33628;50.806;11.586;2023-04-03T07:11:00;10.18;;;2.70;;
47866;SDS011;33628;50.806;11.586;2023-04-03T07:13:27;10.80;;;3.42;;
47866;SDS011;33628;50.806;11.586;2023-04-03T07:15:57;7.60;;;2.90;;
47866;SDS011;33628;50.806;11.586;2023-04-03T07:18:24;8.23;;;3.28;;
47866;SDS011;33628;50.806;11.586;2023-04-03T07:20:51;10.73;;;2.90;;
47866;SDS011;33628;50.806;11.586;2023-04-03T07:23:18;13.00;;;3.10;;
47866;SDS011;33628;50.806;11.586;2023-04-03T07:25:44;6.03;;;3.00;;
47866;SDS011;33628;50.806;11.586;2023-04-03T07:28:12;8.32;;;3.13;;
47866;SDS011;33628;50.806;11.586;2023-04-03T07:30:43;8.40;;;2.45;;
47866;SDS011;33628;50.806;11.586;2023-04-03T07:33:12;10.65;;;2.97;;
47866;SDS011;33628;50.806;11.586;2023-04-03T07:35:40;7.25;;;2.88;;
47866;SDS011;33628;50.806;11.586;2023-04-03T07:38:08;10.05;;;2.80;;
47866;SDS011;33628;50.806;11.586;2023-04-03T07:40:35;6.22;;;2.60;;
47866;SDS011;33628;50.806;11.586;2023-04-03T07:43:01;6.00;;;2.50;;
47866;SDS011;33628;50.806;11.586;2023-04-03T07:45:28;7.50;;;2.80;;
47866;SDS011;33628;50.806;11.586;2023-04-03T07:47:55;4.57;;;2.72;;
47866;SDS011;33628;50.806;11.586;2023-04-03T07:50:23;6.63;;;2.80;;
47866;SDS011;33628;50.806;11.586;2023-04-03T07:52:51;4.72;;;2.35;;
47866;SDS011;33628;50.806;11.586;2023-04-03T07:55:20;12.40;;;2.25;;
47866;SDS011;33628;50.806;11.586;2023-04-03T07:57:47;5.03;;;2.20;;
47866;SDS011;33628;50.806;11.586;2023-04-03T08:00:14;4.70;;;2.33;;
47866;SDS011;33628;50.806;11.586;2023-04-03T08:02:43;7.50;;;2.60;;
47866;SDS011;33628;50.806;11.586;2023-04-03T08:05:10;7.50;;;2.22;;
47866;SDS011;33628;50.806;11.586;2023-04-03T08:07:38;9.20;;;3.05;;
47866;SDS011;33628;50.806;11.586;2023-04-03T08:10:08;7.60;;;2.58;;
47866;SDS011;33628;50.806;11.586;2023-04-03T08:12:35;6.13;;;2.40;;
47866;SDS011;33628;50.806;11.586;2023-04-03T08:15:03;7.05;;;2.13;;
47866;SDS011;33628;50.806;11.586;2023-04-03T08:17:30;8.02;;;2.35;;
47866;SDS011;33628;50.806;11.586;2023-04-03T08:19:58;6.43;;;2.53;;
47866;SDS011;33628;50.806;11.586;2023-04-03T08:22:24;9.15;;;3.42;;
47866;SDS011;33628;50.806;11.586;2023-04-03T08:24:53;11.40;;;2.65;;
47866;SDS011;33628;50.806;11.586;2023-04-03T08:27:20;5.20;;;2.28;;
47866;SDS011;33628;50.806;11.586;2023-04-03T08:29:46;10.30;;;2.88;;
47866;SDS011;33628;50.806;11.586;2023-04-03T08:32:13;7.10;;;2.70;;
47866;SDS011;33628;50.806;11.586;2023-04-03T08:34:39;8.77;;;3.47;;
47866;SDS011;33628;50.806;11.586;2023-04-03T08:37:06;9.20;;;2.97;;
47866;SDS011;33628;50.806;11.586;2023-04-03T08:39:33;6.05;;;2.45;;
47866;SDS011;33628;50.806;11.586;2023-04-03T08:42:02;4.55;;;1.80;;
47866;SDS011;33628;50.806;11.586;2023-04-03T08:44:37;6.10;;;1.98;;
47866;SDS011;33628;50.806;11.586;2023-04-03T08:47:10;6.45;;;1.80;;
47866;SDS011;33628;50.806;11.586;2023-04-03T08:49:41;5.20;;;2.10;;
47866;SDS011;33628;50.806;11.586;2023-04-03T08:52:17;8.85;;;2.08;;
47866;SDS011;33628;50.806;11.586;2023-04-03T08:54:48;5.78;;;2.55;;
47866;SDS011;33628;50.806;11.586;2023-04-03T08:57:18;5.05;;;2.10;;
47866;SDS011;33628;50.806;11.586;2023-04-03T08:59:50;21.55;;;8.10;;
47866;SDS011;33628;50.806;11.586;2023-04-03T09:02:21;13.38;;;3.88;;
47866;SDS011;33628;50.806;11.586;2023-04-03T09:04:51;5.85;;;2.05;;
47866;SDS011;33628;50.806;11.586;2023-04-03T09:07:19;3.15;;;1.50;;
47866;SDS011;33628;50.806;11.586;2023-04-03T09:09:51;5.32;;;1.20;;
47866;SDS011;33628;50.806;11.586;2023-04-03T09:12:21;5.90;;;1.00;;
47866;SDS011;33628;50.806;11.586;2023-04-03T09:14:56;4.20;;;1.40;;
47866;SDS011;33628;50.806;11.586;2023-04-03T09:17:30;3.40;;;0.85;;
47866;SDS011;33628;50.806;11.586;2023-04-03T09:20:09;2.55;;;0.98;;
47866;SDS011;33628;50.806;11.586;2023-04-03T09:22:41;4.80;;;0.88;;
47866;SDS011;33628;50.806;11.586;2023-04-03T09:25:11;2.15;;;0.70;;
47866;SDS011;33628;50.806;11.586;2023-04-03T09:27:41;5.53;;;1.20;;
47866;SDS011;33628;50.806;11.586;2023-04-03T09:30:11;2.42;;;0.82;;
47866;SDS011;33628;50.806;11.586;2023-04-03T09:32:41;5.28;;;0.90;;
47866;SDS011;33628;50.806;11.586;2023-04-03T09:35:15;4.40;;;0.93;;
47866;SDS011;33628;50.806;11.586;2023-04-03T09:37:46;3.65;;;1.13;;
47866;SDS011;33628;50.806;11.586;2023-04-03T09:40:33;1.00;;;0.50;;
47866;SDS011;33628;50.806;11.586;2023-04-03T09:43:09;3.33;;;1.02;;
47866;SDS011;33628;50.806;11.586;2023-04-03T09:45:55;3.58;;;1.33;;
47866;SDS011;33628;50.806;11.586;2023-04-03T09:48:23;3.13;;;1.13;;
47866;SDS011;33628;50.806;11.586;2023-04-03T09:50:55;6.55;;;1.42;;
47866;SDS011;33628;50.806;11.586;2023-04-03T09:53:31;4.20;;;1.60;;
47866;SDS011;33628;50.806;11.586;2023-04-03T09:56:02;4.57;;;1.50;;
47866;SDS011;33628;50.806;11.586;2023-04-03T09:58:31;2.60;;;1.25;;
47866;SDS011;33628;50.806;11.586;2023-04-03T10:01:00;3.28;;;1.25;;
47866;SDS011;33628;50.806;11.586;2023-04-03T10:03:28;3.42;;;1.10;;
47866;SDS011;33628;50.806;11.586;2023-04-03T10:05:57;3.70;;;1.02;;
47866;SDS011;33628;50.806;11.586;2023-04-03T10:08:25;1.98;;;1.10;;
47866;SDS011;33628;50.806;11.586;2023-04-03T10:11:08;3.88;;;1.00;;
47866;SDS011;33628;50.806;11.586;2023-04-03T10:13:37;3.08;;;1.25;;
47866;SDS011;33628;50.806;11.586;2023-04-03T10:16:18;4.13;;;1.67;;
47866;SDS011;33628;50.806;11.586;2023-04-03T10:18:49;6.20;;;1.70;;
47866;SDS011;33628;50.806;11.586;2023-04-03T10:21:26;2.83;;;1.10;;
47866;SDS011;33628;50.806;11.586;2023-04-03T10:24:00;4.47;;;1.98;;
47866;SDS011;33628;50.806;11.586;2023-04-03T10:26:32;2.95;;;1.55;;
47866;SDS011;33628;50.806;11.586;2023-04-03T10:29:08;3.47;;;1.30;;
47866;SDS011;33628;50.806;11.586;2023-04-03T10:31:43;4.05;;;1.40;;
47866;SDS011;33628;50.806;11.586;2023-04-03T10:34:16;7.38;;;1.23;;
47866;SDS011;33628;50.806;11.586;2023-04-03T10:36:49;2.95;;;1.00;;
47866;SDS011;33628;50.806;11.586;2023-04-03T10:39:23;2.88;;;1.10;;
47866;SDS011;33628;50.806;11.586;2023-04-03T10:41:59;1.95;;;0.98;;
47866;SDS011;33628;50.806;11.586;2023-04-03T10:44:32;2.55;;;0.98;;
47866;SDS011;33628;50.806;11.586;2023-04-03T10:47:08;5.47;;;1.17;;
47866;SDS011;33628;50.806;11.586;2023-04-03T10:49:43;4.28;;;1.40;;
47866;SDS011;33628;50.806;11.586;2023-04-03T10:52:17;3.10;;;1.17;;
47866;SDS011;33628;50.806;11.586;2023-04-03T10:54:48;4.45;;;1.33;;
47866;SDS011;33628;50.806;11.586;2023-04-03T10:57:19;3.83;;;1.60;;
47866;SDS011;33628;50.806;11.586;2023-04-03T10:59:49;5.45;;;1.15;;
47866;SDS011;33628;50.806;11.586;2023-04-03T11:02:19;3.88;;;1.90;;
47866;SDS011;33628;50.806;11.586;2023-04-03T11:04:50;2.50;;;1.30;;
47866;SDS011;33628;50.806;11.586;2023-04-03T11:07:20;4.70;;;1.58;;
47866;SDS011;33628;50.806;11.586;2023-04-03T11:09:50;3.20;;;1.50;;
47866;SDS011;33628;50.806;11.586;2023-04-03T11:12:21;3.70;;;1.42;;
47866;SDS011;33628;50.806;11.586;2023-04-03T11:14:53;1.80;;;1.23;;
47866;SDS011;33628;50.806;11.586;2023-04-03T11:17:24;3.50;;;1.25;;
47866;SDS011;33628;50.806;11.586;2023-04-03T11:19:57;2.45;;;0.93;;
47866;SDS011;33628;50.806;11.586;2023-04-03T11:22:27;1.98;;;1.10;;
47866;SDS011;33628;50.806;11.586;2023-04-03T11:24:58;5.38;;;1.23;;
47866;SDS011;33628;50.806;11.586;2023-04-03T11:27:30;5.30;;;1.35;;
47866;SDS011;33628;50.806;11.586;2023-04-03T11:30:07;3.70;;;1.10;;
47866;SDS011;33628;50.806;11.586;2023-04-03T11:35:42;3.30;;;1.00;;
47866;SDS011;33628;50.806;11.586;2023-04-03T11:38:13;2.92;;;1.10;;
47866;SDS011;33628;50.806;11.586;2023-04-03T11:40:43;1.67;;;0.80;;
47866;SDS011;33628;50.806;11.586;2023-04-03T11:43:18;2.83;;;1.17;;
47866;SDS011;33628;50.806;11.586;2023-04-03T11:45:56;3.97;;;0.85;;
47866;SDS011;33628;50.806;11.586;2023-04-03T11:51:39;1.85;;;1.17;;
47866;SDS011;33628;50.806;11.586;2023-04-03T11:57:22;2.67;;;1.50;;
47866;SDS011;33628;50.806;11.586;2023-04-03T12:03:50;3.50;;;1.10;;
47866;SDS011;33628;50.806;11.586;2023-04-03T12:09:27;6.38;;;0.90;;
47866;SDS011;33628;50.806;11.586;2023-04-03T12:11:56;3.42;;;0.90;;
47866;SDS011;33628;50.806;11.586;2023-04-03T12:14:25;3.00;;;1.45;;
47866;SDS011;33628;50.806;11.586;2023-04-03T12:16:54;3.40;;;1.52;;
47866;SDS011;33628;50.806;11.586;2023-04-03T12:19:32;4.05;;;1.42;;
47866;SDS011;33628;50.806;11.586;2023-04-03T12:22:05;5.90;;;1.30;;
47866;SDS011;33628;50.806;11.586;2023-04-03T12:24:42;2.10;;;0.82;;
47866;SDS011;33628;50.806;11.586;2023-04-03T12:27:17;2.45;;;1.10;;
47866;SDS011;33628;50.806;11.586;2023-04-03T12:29:53;7.97;;;1.60;;
47866;SDS011;33628;50.806;11.586;2023-04-03T12:32:48;2.40;;;1.23;;
47866;SDS011;33628;50.806;11.586;2023-04-03T12:35:34;5.55;;;1.27;;
47866;SDS011;33628;50.806;11.586;2023-04-03T12:38:18;3.65;;;1.23;;
47866;SDS011;33628;50.806;11.586;2023-04-03T12:41:01;2.40;;;1.48;;
47866;SDS011;33628;50.806;11.586;2023-04-03T12:44:01;7.28;;;1.30;;
47866;SDS011;33628;50.806;11.586;2023-04-03T12:46:42;1.70;;;0.85;;
47866;SDS011;33628;50.806;11.586;2023-04-03T12:49:18;4.78;;;1.00;;
47866;SDS011;33628;50.806;11.586;2023-04-03T12:51:52;2.70;;;0.93;;
47866;SDS011;33628;50.806;11.586;2023-04-03T12:54:19;2.50;;;1.10;;
47866;SDS011;33628;50.806;11.586;2023-04-03T12:56:50;5.03;;;0.98;;
47866;SDS011;33628;50.806;11.586;2023-04-03T12:59:18;5.72;;;1.02;;
47866;SDS011;33628;50.806;11.586;2023-04-03T13:01:52;4.78;;;0.88;;
47866;SDS011;33628;50.806;11.586;2023-04-03T13:04:21;6.13;;;2.45;;
47866;SDS011;33628;50.806;11.586;2023-04-03T13:06:48;1.42;;;0.60;;
47866;SDS011;33628;50.806;11.586;2023-04-03T13:09:20;4.78;;;1.50;;
47866;SDS011;33628;50.806;11.586;2023-04-03T13:11:47;6.13;;;1.40;;
47866;SDS011;33628;50.806;11.586;2023-04-03T13:14:17;4.50;;;1.45;;
47866;SDS011;33628;50.806;11.586;2023-04-03T13:16:52;3.35;;;1.23;;
47866;SDS011;33628;50.806;11.586;2023-04-03T13:19:22;3.50;;;1.65;;
47866;SDS011;33628;50.806;11.586;2023-04-03T13:21:50;3.28;;;1.23;;
47866;SDS011;33628;50.806;11.586;2023-04-03T13:24:23;7.70;;;1.60;;
47866;SDS011;33628;50.806;11.586;2023-04-03T13:26:51;3.03;;;1.23;;
47866;SDS011;33628;50.806;11.586;2023-04-03T13:29:22;3.35;;;1.63;;
47866;SDS011;33628;50.806;11.586;2023-04-03T13:31:52;3.83;;;1.35;;
47866;SDS011;33628;50.806;11.586;2023-04-03T13:34:20;5.55;;;1.20;;
47866;SDS011;33628;50.806;11.586;2023-04-03T13:36:55;4.30;;;1.08;;
47866;SDS011;33628;50.806;11.586;2023-04-03T13:39:27;3.92;;;1.23;;
47866;SDS011;33628;50.806;11.586;2023-04-03T13:41:55;3.00;;;1.25;;
47866;SDS011;33628;50.806;11.586;2023-04-03T13:44:29;2.65;;;1.40;;
47866;SDS011;33628;50.806;11.586;2023-04-03T13:46:59;5.93;;;1.40;;
47866;SDS011;33628;50.806;11.586;2023-04-03T13:49:29;4.10;;;1.30;;
47866;SDS011;33628;50.806;11.586;2023-04-03T13:51:59;3.08;;;1.40;;
47866;SDS011;33628;50.806;11.586;2023-04-03T13:54:30;5.78;;;1.48;;
47866;SDS011;33628;50.806;11.586;2023-04-03T13:57:00;5.93;;;1.75;;
47866;SDS011;33628;50.806;11.586;2023-04-03T13:59:28;4.55;;;1.60;;
47866;SDS011;33628;50.806;11.586;2023-04-03T14:02:09;10.15;;;1.60;;
47866;SDS011;33628;50.806;11.586;2023-04-03T14:04:45;5.38;;;1.70;;
47866;SDS011;33628;50.806;11.586;2023-04-03T14:07:19;6.82;;;2.08;;
47866;SDS011;33628;50.806;11.586;2023-04-03T14:09:49;3.28;;;1.67;;
47866;SDS011;33628;50.806;11.586;2023-04-03T14:12:17;4.07;;;1.73;;
47866;SDS011;33628;50.806;11.586;2023-04-03T14:14:46;8.63;;;1.35;;
47866;SDS011;33628;50.806;11.586;2023-04-03T14:17:14;4.13;;;1.13;;
47866;SDS011;33628;50.806;11.586;2023-04-03T14:19:42;4.35;;;1.00;;
47866;SDS011;33628;50.806;11.586;2023-04-03T14:22:12;5.10;;;1.60;;
47866;SDS011;33628;50.806;11.586;2023-04-03T14:24:41;3.53;;;1.50;;
47866;SDS011;33628;50.806;11.586;2023-04-03T14:27:13;4.82;;;1.60;;
47866;SDS011;33628;50.806;11.586;2023-04-03T14:29:42;7.53;;;1.98;;
47866;SDS011;33628;50.806;11.586;2023-04-03T14:32:10;4.03;;;1.30;;
47866;SDS011;33628;50.806;11.586;2023-04-03T14:34:38;2.25;;;1.17;;
47866;SDS011;33628;50.806;11.586;2023-04-03T14:37:09;2.78;;;1.00;;
47866;SDS011;33628;50.806;11.586;2023-04-03T14:39:37;4.25;;;1.60;;
47866;SDS011;33628;50.806;11.586;2023-04-03T14:42:05;4.40;;;1.23;;
47866;SDS011;33628;50.806;11.586;2023-04-03T14:44:37;3.55;;;1.23;;
47866;SDS011;33628;50.806;11.586;2023-04-03T14:47:04;3.22;;;1.45;;
47866;SDS011;33628;50.806;11.586;2023-04-03T14:49:32;3.83;;;1.40;;
47866;SDS011;33628;50.806;11.586;2023-04-03T14:51:59;5.40;;;1.50;;
47866;SDS011;33628;50.806;11.586;2023-04-03T14:54:26;2.88;;;1.23;;
47866;SDS011;33628;50.806;11.586;2023-04-03T14:56:55;7.45;;;0.90;;
47866;SDS011;33628;50.806;11.586;2023-04-03T14:59:25;4.28;;;1.45;;
47866;SDS011;33628;50.806;11.586;2023-04-03T15:01:53;3.60;;;1.60;;
47866;SDS011;33628;50.806;11.586;2023-04-03T15:04:21;4.95;;;1.95;;
47866;SDS011;33628;50.806;11.586;2023-04-03T15:06:47;6.60;;;1.90;;